createdAt,value
2018-09-21T00:02:01.633Z,100066.33
2018-09-21T00:04:30.545Z,100065.80
2018-09-21T00:06:59.468Z,100062.02
2018-09-21T00:09:28.518Z,100055.50
2018-09-21T00:11:57.469Z,100052.25
2018-09-21T00:14:26.356Z,100052.53
2018-09-21T00:16:55.349Z,100047.91
2018-09-21T00:19:24.374Z,100039.77
2018-09-21T00:21:53.393Z,100031.10
2018-09-21T00:24:22.384Z,100024.31
2018-09-21T00:26:51.415Z,100028.92
2018-09-21T00:29:20.419Z,100020.78
2018-09-21T00:31:49.553Z,100021.38
2018-09-21T00:34:18.478Z,100012.41
2018-09-21T00:36:47.497Z,100009.16
2018-09-21T00:39:16.583Z,100012.95
2018-09-21T00:41:45.600Z,100004.54
2018-09-21T00:44:14.669Z,100000.22
2018-09-21T00:46:43.765Z,100012.13
2018-09-21T00:49:12.653Z,100008.89
2018-09-21T00:51:41.628Z,100002.40
2018-09-21T00:54:10.625Z,99998.59
2018-09-21T00:56:39.632Z,99995.88
2018-09-21T00:59:08.505Z,99989.11
2018-09-21T01:01:37.387Z,99982.88
2018-09-21T01:04:06.297Z,99978.25
2018-09-21T01:06:35.139Z,99974.48
2018-09-21T01:09:05.150Z,99973.93
2018-09-21T01:11:33.971Z,99963.63
2018-09-21T01:14:02.833Z,99966.06
2018-09-21T01:16:31.672Z,99960.93
2018-09-21T01:19:00.497Z,99953.64
2018-09-21T01:21:29.380Z,99951.19
2018-09-21T01:23:58.205Z,99949.80
2018-09-21T01:26:27.045Z,99948.19
2018-09-21T01:28:56.056Z,99941.14
2018-09-21T01:31:25.248Z,99938.44
2018-09-21T01:33:54.221Z,99933.55
2018-09-21T01:36:23.102Z,99930.58
2018-09-21T01:38:51.980Z,99925.13
2018-09-21T01:41:20.821Z,99925.13
2018-09-21T01:43:49.648Z,99918.06
2018-09-21T01:46:18.428Z,99914.84
2018-09-21T01:48:47.222Z,99914.05
2018-09-21T01:51:16.180Z,99912.98
2018-09-21T01:53:45.096Z,99906.98
2018-09-21T01:56:13.960Z,99905.89
2018-09-21T01:58:42.913Z,99886.39
2018-09-21T02:01:11.835Z,99892.35
2018-09-21T02:03:40.731Z,99883.17
2018-09-21T02:06:09.596Z,99879.87
2018-09-21T02:08:38.472Z,99871.21
2018-09-21T02:11:07.470Z,99867.97
2018-09-21T02:13:36.429Z,99861.73
2018-09-21T02:16:05.317Z,99864.73
2018-09-21T02:18:34.208Z,99864.45
2018-09-21T02:21:03.093Z,99858.77
2018-09-21T02:23:31.968Z,99856.08
2018-09-21T02:26:00.750Z,99850.91
2018-09-21T02:28:29.588Z,99852.77
2018-09-21T02:30:58.343Z,99842.16
2018-09-21T02:33:27.208Z,99843.20
2018-09-21T02:35:56.191Z,99838.86
2018-09-21T02:38:25.160Z,99827.69
2018-09-21T02:40:54.055Z,99822.52
2018-09-21T02:43:22.913Z,99819.74
2018-09-21T02:45:51.842Z,99815.08
2018-09-21T02:48:20.670Z,99809.63
2018-09-21T02:50:49.598Z,99800.69
2018-09-21T02:53:18.537Z,99792.73
2018-09-21T02:55:47.458Z,99786.99
2018-09-21T02:58:16.313Z,99775.02
2018-09-21T03:00:45.411Z,99769.31
2018-09-21T03:03:14.130Z,99761.17
2018-09-21T03:05:42.961Z,99750.32
2018-09-21T03:08:11.761Z,99742.46
2018-09-21T03:10:40.719Z,99745.46
2018-09-21T03:13:09.787Z,99743.31
2018-09-21T03:15:38.610Z,99738.48
2018-09-21T03:18:07.560Z,99737.33
2018-09-21T03:20:36.434Z,99730.72
2018-09-21T03:23:05.384Z,99729.01
2018-09-21T03:25:34.284Z,99720.00
2018-09-21T03:28:03.110Z,99718.37
2018-09-21T03:30:32.058Z,99704.47
2018-09-21T03:33:01.067Z,99693.11
2018-09-21T03:35:29.892Z,99680.89
2018-09-21T03:37:58.964Z,99670.03
2018-09-21T03:40:27.837Z,99674.31
2018-09-21T03:42:56.887Z,99655.31
2018-09-21T03:45:25.769Z,99654.20
2018-09-21T03:47:54.689Z,99639.55
2018-09-21T03:50:23.572Z,99634.56
2018-09-21T03:52:52.545Z,99637.20
2018-09-21T03:55:21.452Z,99622.27
2018-09-21T03:57:50.315Z,99628.45
2018-09-21T04:00:19.210Z,99619.66
2018-09-21T04:02:48.244Z,99615.47
2018-09-21T04:05:17.162Z,99610.24
2018-09-21T04:07:46.078Z,99602.06
2018-09-21T04:10:15.131Z,99602.91
2018-09-21T04:12:44.276Z,99590.77
2018-09-21T04:15:13.288Z,99594.33
2018-09-21T04:17:42.155Z,99573.92
2018-09-21T04:20:11.156Z,99569.85
2018-09-21T04:22:40.052Z,99566.32
2018-09-21T04:25:10.884Z,99574.81
2018-09-21T04:27:39.949Z,99578.07
2018-09-21T04:30:08.869Z,99571.25
2018-09-21T04:32:37.830Z,99567.06
2018-09-21T04:35:06.760Z,99564.30
2018-09-21T04:37:35.692Z,99557.08
2018-09-21T04:40:04.721Z,99559.91
2018-09-21T04:42:33.581Z,99558.97
2018-09-21T04:45:02.497Z,99562.91
2018-09-21T04:47:31.438Z,99544.10
2018-09-21T04:50:00.431Z,99543.47
2018-09-21T04:52:29.363Z,99542.20
2018-09-21T04:54:58.249Z,99537.34
2018-09-21T04:57:27.101Z,99535.08
2018-09-21T04:59:56.034Z,99537.38
2018-09-21T05:02:24.920Z,99541.09
2018-09-21T05:04:53.898Z,99531.30
2018-09-21T05:07:22.763Z,99528.25
2018-09-21T05:09:51.760Z,99524.73
2018-09-21T05:12:20.763Z,99528.08
2018-09-21T05:14:49.683Z,99518.22
2018-09-21T05:17:18.600Z,99523.06
2018-09-21T05:19:47.569Z,99515.31
2018-09-21T05:22:16.496Z,99512.32
2018-09-21T05:24:45.377Z,99512.04
2018-09-21T05:27:14.302Z,99519.38
2018-09-21T05:29:43.164Z,99495.61
2018-09-21T05:32:12.044Z,99501.42
2018-09-21T05:34:41.162Z,99507.82
2018-09-21T05:37:10.053Z,99509.06
2018-09-21T05:39:38.911Z,99514.59
2018-09-21T05:42:07.857Z,99508.66
2018-09-21T05:44:36.894Z,99496.88
2018-09-21T05:47:05.879Z,99497.23
2018-09-21T05:49:34.887Z,99493.44
2018-09-21T05:52:03.868Z,99475.24
2018-09-21T05:54:32.824Z,99476.52
2018-09-21T05:57:01.745Z,99465.61
2018-09-21T05:59:30.686Z,99481.28
2018-09-21T06:01:59.660Z,99479.66
2018-09-21T06:04:28.647Z,99476.17
2018-09-21T06:06:57.588Z,99470.45
2018-09-21T06:09:26.556Z,99471.53
2018-09-21T06:11:55.493Z,99469.05
2018-09-21T06:14:24.453Z,99467.84
2018-09-21T06:16:53.409Z,99444.34
2018-09-21T06:19:22.359Z,99460.09
2018-09-21T06:21:51.309Z,99472.74
2018-09-21T06:24:20.428Z,99490.48
2018-09-21T06:26:49.332Z,99481.41
2018-09-21T06:29:18.265Z,99474.36
2018-09-21T06:31:47.243Z,99470.78
2018-09-21T06:34:16.202Z,99475.63
2018-09-21T06:36:45.185Z,99474.27
2018-09-21T06:39:14.222Z,99470.24
2018-09-21T06:41:43.209Z,99484.75
2018-09-21T06:44:12.180Z,99455.93
2018-09-21T06:46:41.094Z,99460.37
2018-09-21T06:49:10.026Z,99465.55
2018-09-21T06:51:39.012Z,99476.30
2018-09-21T06:54:08.113Z,99478.61
2018-09-21T06:56:37.009Z,99483.66
2018-09-21T06:59:06.317Z,99477.28
2018-09-21T07:01:35.437Z,99484.54
2018-09-21T07:04:04.324Z,99494.50
2018-09-21T07:06:33.351Z,99505.78
2018-09-21T07:09:02.375Z,99501.12
2018-09-21T07:11:31.467Z,99488.91
2018-09-21T07:14:00.324Z,99473.14
2018-09-21T07:16:29.317Z,99494.53
2018-09-21T07:18:58.190Z,99501.14
2018-09-21T07:21:27.074Z,99484.19
2018-09-21T07:23:56.001Z,99490.63
2018-09-21T07:26:27.144Z,99508.78
2018-09-21T07:28:56.010Z,99501.22
2018-09-21T07:31:25.428Z,99520.27
2018-09-21T07:33:54.365Z,99526.69
2018-09-21T07:36:24.506Z,99521.97
2018-09-21T07:38:53.348Z,99497.91
2018-09-21T07:41:22.271Z,99482.96
2018-09-21T07:43:51.184Z,99490.83
2018-09-21T07:46:21.376Z,99497.66
2018-09-21T07:48:50.418Z,99487.02
2018-09-21T07:51:19.307Z,99502.22
2018-09-21T07:53:48.279Z,99498.99
2018-09-21T07:56:17.550Z,99487.03
2018-09-21T07:58:46.519Z,99487.50
2018-09-21T08:01:15.581Z,99496.30
2018-09-21T08:03:44.525Z,99493.00
2018-09-21T08:06:13.656Z,99500.00
2018-09-21T08:08:42.678Z,99500.87
2018-09-21T08:11:11.652Z,99499.67
2018-09-21T08:13:40.565Z,99482.67
2018-09-21T08:16:09.871Z,99498.59
2018-09-21T08:18:38.846Z,99485.99
2018-09-21T08:21:07.762Z,99482.03
2018-09-21T08:23:36.683Z,99472.92
2018-09-21T08:26:05.616Z,99497.47
2018-09-21T08:28:34.739Z,99473.67
2018-09-21T08:31:03.735Z,99482.71
2018-09-21T08:33:33.600Z,99478.61
2018-09-21T08:36:02.481Z,99476.81
2018-09-21T08:38:31.388Z,99472.91
2018-09-21T08:41:00.421Z,99458.29
2018-09-21T08:43:29.277Z,99474.43
2018-09-21T08:45:59.402Z,99459.03
2018-09-21T08:48:28.356Z,99467.30
2018-09-21T08:50:57.384Z,99496.30
2018-09-21T08:53:26.290Z,99504.47
2018-09-21T08:55:55.408Z,99511.38
2018-09-21T08:58:24.553Z,99501.49
2018-09-21T09:00:53.528Z,99534.61
2018-09-21T09:03:23.349Z,99549.38
2018-09-21T09:05:54.465Z,99562.09
2018-09-21T09:08:24.715Z,99599.67
2018-09-21T09:10:54.208Z,99668.59
2018-09-21T09:13:23.167Z,99668.61
2018-09-21T09:15:52.406Z,99705.88
2018-09-21T09:18:21.357Z,99703.21
2018-09-21T09:20:50.334Z,99715.14
2018-09-21T09:23:19.428Z,99714.48
2018-09-21T09:25:51.798Z,99713.51
2018-09-21T09:28:20.721Z,99718.52
2018-09-21T09:30:49.720Z,99709.12
2018-09-21T09:33:18.703Z,99726.09
2018-09-21T09:35:48.724Z,99736.08
2018-09-21T09:38:17.661Z,99746.47
2018-09-21T09:40:47.571Z,99740.64
2018-09-21T09:43:16.452Z,99737.80
2018-09-21T09:45:46.383Z,99740.39
2018-09-21T09:48:15.242Z,99748.06
2018-09-21T09:50:44.280Z,99750.59
2018-09-21T09:53:13.223Z,99756.00
2018-09-21T09:55:51.657Z,99763.56
2018-09-21T09:58:20.610Z,99762.52
2018-09-21T10:00:53.268Z,99764.16
2018-09-21T10:03:23.887Z,99759.31
2018-09-21T10:05:52.944Z,99767.73
2018-09-21T10:08:21.840Z,99769.08
2018-09-21T10:10:50.678Z,99769.09
2018-09-21T10:13:19.652Z,99785.00
2018-09-21T10:15:53.192Z,99764.54
2018-09-21T10:18:22.169Z,99781.83
2018-09-21T10:20:51.092Z,99782.40
2018-09-21T10:23:19.968Z,99784.30
2018-09-21T10:25:50.089Z,99779.70
2018-09-21T10:28:19.081Z,99783.20
2018-09-21T10:30:48.009Z,99788.09
2018-09-21T10:33:17.065Z,99796.16
2018-09-21T10:35:46.139Z,99800.52
2018-09-21T10:38:15.079Z,99802.11
2018-09-21T10:40:44.214Z,99806.16
2018-09-21T10:43:13.411Z,99828.02
2018-09-21T10:45:42.145Z,99826.15
2018-09-21T10:48:12.256Z,99818.63
2018-09-21T10:50:41.177Z,99811.88
2018-09-21T10:53:10.211Z,99813.52
2018-09-21T10:55:39.199Z,99821.31
2018-09-21T10:58:09.199Z,99818.08
2018-09-21T11:00:38.139Z,99816.20
2018-09-21T11:03:07.096Z,99837.82
2018-09-21T11:05:36.076Z,99822.17
2018-09-21T11:08:06.096Z,99828.95
2018-09-21T11:10:35.151Z,99837.07
2018-09-21T11:13:04.220Z,99838.95
2018-09-21T11:15:33.078Z,99850.31
2018-09-21T11:18:03.102Z,99851.94
2018-09-21T11:20:34.279Z,99844.02
2018-09-21T11:23:03.143Z,99850.72
2018-09-21T11:25:32.069Z,99858.03
2018-09-21T11:28:02.201Z,99847.16
2018-09-21T11:30:31.055Z,99854.39
2018-09-21T11:33:00.046Z,99846.47
2018-09-21T11:35:28.979Z,99852.91
2018-09-21T11:38:00.269Z,99864.98
2018-09-21T11:40:29.235Z,99858.80
2018-09-21T11:42:58.222Z,99862.16
2018-09-21T11:45:27.132Z,99854.29
2018-09-21T11:47:57.138Z,99854.30
2018-09-21T11:50:26.041Z,99849.57
2018-09-21T11:52:55.033Z,99863.80
2018-09-21T11:55:24.038Z,99870.89
2018-09-21T11:57:53.005Z,99872.75
2018-09-21T12:00:24.236Z,99878.62
2018-09-21T12:02:53.392Z,99894.09
2018-09-21T12:05:27.456Z,99898.98
2018-09-21T12:07:57.607Z,99903.84
2018-09-21T12:10:26.903Z,99906.77
2018-09-21T12:12:55.865Z,99911.06
2018-09-21T12:15:24.844Z,99911.33
2018-09-21T12:17:55.013Z,99903.23
2018-09-21T12:20:24.021Z,99920.38
2018-09-21T12:22:52.997Z,99914.40
2018-09-21T12:25:21.886Z,99911.34
2018-09-21T12:27:58.985Z,99929.19
2018-09-21T12:30:28.210Z,99932.19
2018-09-21T12:32:57.113Z,99931.94
2018-09-21T12:35:25.956Z,99948.73
2018-09-21T12:37:56.948Z,99950.08
2018-09-21T12:40:25.827Z,99942.72
2018-09-21T12:42:54.697Z,99938.70
2018-09-21T12:45:23.530Z,99950.34
2018-09-21T12:47:53.617Z,99953.86
2018-09-21T12:50:22.576Z,99968.23
2018-09-21T12:52:51.490Z,99976.67
2018-09-21T12:55:20.340Z,99968.77
2018-09-21T12:57:49.422Z,99983.70
2018-09-21T13:00:18.349Z,99986.38
2018-09-21T13:02:47.358Z,99992.34
2018-09-21T13:05:16.157Z,99994.77
2018-09-21T13:07:47.198Z,99992.28
2018-09-21T13:10:16.087Z,99996.95
2018-09-21T13:12:45.027Z,99996.69
2018-09-21T13:15:14.021Z,100004.47
2018-09-21T13:17:56.284Z,100000.44
2018-09-21T13:20:25.204Z,100005.69
2018-09-21T13:22:54.107Z,100018.36
2018-09-21T13:25:23.069Z,100014.72
2018-09-21T13:27:52.124Z,100026.95
2018-09-21T13:30:21.161Z,100020.27
2018-09-21T13:32:50.134Z,100017.38
2018-09-21T13:35:19.145Z,100032.41
2018-09-21T13:37:50.188Z,100040.86
2018-09-21T13:40:19.169Z,100052.78
2018-09-21T13:42:48.084Z,100048.38
2018-09-21T13:45:16.993Z,100040.48
2018-09-21T13:47:45.945Z,100032.09
2018-09-21T13:50:14.840Z,100041.37
2018-09-21T13:52:43.828Z,100059.25
2018-09-21T13:55:12.648Z,100056.03
2018-09-21T13:57:41.629Z,100053.33
2018-09-21T14:00:13.153Z,100058.05
2018-09-21T14:02:42.874Z,100053.98
2018-09-21T14:05:11.905Z,100060.30
2018-09-21T14:07:41.867Z,100063.77
2018-09-21T14:10:12.225Z,100049.91
2018-09-21T14:12:41.393Z,100043.22
2018-09-21T14:15:10.224Z,100030.86
2018-09-21T14:17:39.238Z,100053.02
2018-09-21T14:20:10.356Z,100072.15
2018-09-21T14:22:39.588Z,100076.62
2018-09-21T14:25:08.544Z,100076.55
2018-09-21T14:27:37.444Z,100086.33
2018-09-21T14:30:08.453Z,100091.36
2018-09-21T14:32:37.446Z,100055.38
2018-09-21T14:35:06.484Z,100075.49
2018-09-21T14:37:35.368Z,100075.80
2018-09-21T14:40:04.358Z,100080.20
2018-09-21T14:42:33.336Z,100068.83
2018-09-21T14:45:02.308Z,100079.69
2018-09-21T14:47:31.289Z,100084.75
2018-09-21T14:50:00.455Z,100089.41
2018-09-21T14:52:29.376Z,100095.66
2018-09-21T14:54:58.255Z,100097.40
2018-09-21T14:57:27.210Z,100107.26
2018-09-21T15:00:00.445Z,100102.44
2018-09-21T15:02:29.311Z,100095.31
2018-09-21T15:04:58.304Z,100120.80
2018-09-21T15:07:27.294Z,100122.09
2018-09-21T15:09:57.373Z,100115.05
2018-09-21T15:12:26.350Z,100119.72
2018-09-21T15:14:55.292Z,100130.55
2018-09-21T15:17:24.209Z,100131.22
2018-09-21T15:19:53.510Z,100147.66
2018-09-21T15:22:22.565Z,100144.85
2018-09-21T15:24:51.528Z,100145.08
2018-09-21T15:27:20.465Z,100145.00
2018-09-21T15:29:50.557Z,100144.73
2018-09-21T15:32:19.442Z,100144.20
2018-09-21T15:34:48.377Z,100162.73
2018-09-21T15:37:17.266Z,100162.63
2018-09-21T15:39:46.539Z,100162.52
2018-09-21T15:42:15.537Z,100167.97
2018-09-21T15:44:44.427Z,100168.91
2018-09-21T15:47:14.488Z,100173.17
2018-09-21T15:49:44.658Z,100180.33
2018-09-21T15:52:13.559Z,100188.78
2018-09-21T15:54:42.483Z,100192.30
2018-09-21T15:57:11.485Z,100192.11
2018-09-21T15:59:40.564Z,100199.95
2018-09-21T16:02:09.438Z,100194.21
2018-09-21T16:04:38.691Z,100184.94
2018-09-21T16:07:07.691Z,100200.58
2018-09-21T16:10:40.313Z,100198.45
2018-09-21T16:13:09.934Z,100199.82
2018-09-21T16:15:38.857Z,100201.63
2018-09-21T16:18:07.717Z,100199.19
2018-09-21T16:20:37.687Z,100198.05
2018-09-21T16:23:06.705Z,100198.59
2018-09-21T16:25:35.840Z,100198.89
2018-09-21T16:28:04.798Z,100196.34
2018-09-21T16:30:34.849Z,100199.38
2018-09-21T16:33:03.813Z,100209.58
2018-09-21T16:35:32.745Z,100220.11
2018-09-21T16:38:01.831Z,100225.80
2018-09-21T16:40:31.775Z,100215.97
2018-09-21T16:43:00.708Z,100223.02
2018-09-21T16:45:29.568Z,100226.52
2018-09-21T16:47:58.560Z,100225.80
2018-09-21T16:50:28.635Z,100234.34
2018-09-21T16:52:57.593Z,100227.74
2018-09-21T16:55:26.571Z,100233.07
2018-09-21T16:57:55.496Z,100229.45
2018-09-21T17:00:24.659Z,100233.67
2018-09-21T17:02:53.651Z,100241.08
2018-09-21T17:05:22.555Z,100228.80
2018-09-21T17:07:51.591Z,100236.98
2018-09-21T17:10:20.601Z,100247.06
2018-09-21T17:12:49.587Z,100248.05
2018-09-21T17:15:18.492Z,100251.08
2018-09-21T17:17:47.383Z,100252.92
2018-09-21T17:20:17.327Z,100257.70
2018-09-21T17:22:46.276Z,100267.78
2018-09-21T17:25:15.313Z,100260.71
2018-09-21T17:27:44.240Z,100260.55
2018-09-21T17:30:14.232Z,100271.91
2018-09-21T17:32:43.155Z,100276.91
2018-09-21T17:35:12.064Z,100284.70
2018-09-21T17:37:40.975Z,100285.29
2018-09-21T17:40:09.850Z,100292.30
2018-09-21T17:42:38.756Z,100296.41
2018-09-21T17:45:07.991Z,100303.22
2018-09-21T17:47:36.862Z,100320.08
2018-09-21T17:50:06.408Z,100318.50
2018-09-21T17:52:35.428Z,100328.09
2018-09-21T17:55:04.493Z,100335.93
2018-09-21T17:57:33.513Z,100334.66
2018-09-21T18:00:02.496Z,100334.62
2018-09-21T18:02:31.361Z,100341.70
2018-09-21T18:05:00.362Z,100341.36
2018-09-21T18:07:29.447Z,100353.02
2018-09-21T18:09:58.444Z,100358.03
2018-09-21T18:12:27.310Z,100356.53
2018-09-21T18:14:56.399Z,100360.91
2018-09-21T18:17:25.230Z,100370.50
2018-09-21T18:19:54.227Z,100374.36
2018-09-21T18:22:23.148Z,100380.63
2018-09-21T18:24:52.032Z,100396.50
2018-09-21T18:27:20.907Z,100404.41
2018-09-21T18:29:49.844Z,100420.63
2018-09-21T18:32:18.837Z,100408.97
2018-09-21T18:34:47.878Z,100392.81
2018-09-21T18:37:16.840Z,100409.23
2018-09-21T18:39:45.866Z,100414.78
2018-09-21T18:42:14.823Z,100423.92
2018-09-21T18:44:43.906Z,100438.43
2018-09-21T18:47:12.869Z,100463.66
2018-09-21T18:49:41.844Z,100462.81
2018-09-21T18:52:10.884Z,100451.29
2018-09-21T18:54:39.977Z,100464.47
2018-09-21T18:57:09.027Z,100473.80
2018-09-21T18:59:38.089Z,100475.94
2018-09-21T19:02:07.125Z,100480.72
2018-09-21T19:04:36.045Z,100470.59
2018-09-21T19:07:09.204Z,100478.62
2018-09-21T19:09:38.164Z,100481.92
2018-09-21T19:12:07.126Z,100503.53
2018-09-21T19:14:36.427Z,100503.25
2018-09-21T19:17:05.492Z,100516.83
2018-09-21T19:19:34.442Z,100522.66
2018-09-21T19:22:03.438Z,100522.36
2018-09-21T19:24:32.411Z,100528.78
2018-09-21T19:27:01.289Z,100541.08
2018-09-21T19:29:30.409Z,100552.52
2018-09-21T19:31:59.477Z,100572.69
2018-09-21T19:34:28.463Z,100573.80
2018-09-21T19:36:57.588Z,100568.27
2018-09-21T19:39:26.561Z,100567.11
2018-09-21T19:41:55.616Z,100559.81
2018-09-21T19:44:24.477Z,100557.47
2018-09-21T19:46:53.464Z,100556.39
2018-09-21T19:49:22.465Z,100557.35
2018-09-21T19:51:51.492Z,100557.59
2018-09-21T19:54:20.565Z,100551.12
2018-09-21T19:56:49.579Z,100568.55
2018-09-21T19:59:18.548Z,100571.00
2018-09-21T20:01:47.459Z,100580.38
2018-09-21T20:04:16.415Z,100596.59
2018-09-21T20:06:45.348Z,100589.98
2018-09-21T20:09:14.279Z,100583.70
2018-09-21T20:11:43.385Z,100580.94
2018-09-21T20:14:12.403Z,100584.64
2018-09-21T20:16:41.318Z,100552.91
2018-09-21T20:19:10.262Z,100539.34
2018-09-21T20:21:39.329Z,100572.35
2018-09-21T20:24:08.365Z,100587.14
2018-09-21T20:26:37.322Z,100581.49
2018-09-21T20:29:06.345Z,100582.61
2018-09-21T20:31:40.371Z,100569.16
2018-09-21T20:34:09.324Z,100561.58
2018-09-21T20:36:38.274Z,100568.70
2018-09-21T20:39:08.518Z,100573.27
2018-09-21T20:41:37.471Z,100568.63
2018-09-21T20:44:06.489Z,100566.91
2018-09-21T20:46:35.508Z,100563.73
2018-09-21T20:49:04.450Z,100559.06
2018-09-21T20:51:34.432Z,100574.30
2018-09-21T20:54:03.445Z,100577.30
2018-09-21T20:56:32.469Z,100577.47
2018-09-21T20:59:01.454Z,100580.06
2018-09-21T21:01:30.324Z,100589.70
2018-09-21T21:03:59.344Z,100583.85
2018-09-21T21:06:28.342Z,100595.17
2018-09-21T21:08:57.267Z,100596.59
2018-09-21T21:11:26.207Z,100587.48
2018-09-21T21:13:55.209Z,100578.78
2018-09-21T21:16:24.262Z,100591.67
2018-09-21T21:18:53.271Z,100581.34
2018-09-21T21:21:22.239Z,100582.69
2018-09-21T21:23:51.081Z,100584.08
2018-09-21T21:26:20.048Z,100578.80
2018-09-21T21:28:49.070Z,100582.41
2018-09-21T21:31:18.017Z,100585.13
2018-09-21T21:33:46.840Z,100601.30
2018-09-21T21:36:15.731Z,100626.43
2018-09-21T21:38:44.744Z,100625.36
2018-09-21T21:41:13.654Z,100615.33
2018-09-21T21:43:42.536Z,100610.30
2018-09-21T21:46:11.543Z,100615.81
2018-09-21T21:48:40.592Z,100613.87
2018-09-21T21:51:09.554Z,100620.48
2018-09-21T21:53:38.478Z,100623.06
2018-09-21T21:56:07.478Z,100630.79
2018-09-21T21:58:36.375Z,100659.61
2018-09-21T22:01:10.365Z,100685.77
2018-09-21T22:03:39.435Z,100692.56
2018-09-21T22:06:08.303Z,100697.92
2018-09-21T22:08:37.276Z,100678.79
2018-09-21T22:11:10.332Z,100666.96
2018-09-21T22:13:44.381Z,100655.36
2018-09-21T22:16:13.179Z,100654.30
2018-09-21T22:18:42.062Z,100656.98
2018-09-21T22:21:11.961Z,100659.24
2018-09-21T22:23:40.972Z,100656.88
2018-09-21T22:26:09.894Z,100650.59
2018-09-21T22:28:38.902Z,100653.66
2018-09-21T22:31:07.978Z,100654.80
2018-09-21T22:33:37.018Z,100673.61
2018-09-21T22:36:06.298Z,100675.92
2018-09-21T22:38:35.185Z,100692.75
2018-09-21T22:41:04.070Z,100678.27
2018-09-21T22:43:32.964Z,100676.29
2018-09-21T22:46:01.874Z,100671.65
2018-09-21T22:48:30.899Z,100668.56
2018-09-21T22:50:59.883Z,100676.66
2018-09-21T22:53:28.769Z,100687.39
2018-09-21T22:55:57.588Z,100685.95
2018-09-21T22:58:26.509Z,100682.75
2018-09-21T23:00:55.439Z,100684.47
2018-09-21T23:03:24.266Z,100686.27
2018-09-21T23:05:53.185Z,100690.92
2018-09-21T23:08:22.170Z,100701.13
2018-09-21T23:10:52.082Z,100702.94
2018-09-21T23:13:21.007Z,100702.66
2018-09-21T23:15:50.061Z,100706.20
2018-09-21T23:18:19.110Z,100692.80
2018-09-21T23:20:47.913Z,100699.59
2018-09-21T23:23:16.823Z,100706.80
2018-09-21T23:25:45.950Z,100711.02
2018-09-21T23:28:14.845Z,100714.52
2018-09-21T23:30:43.928Z,100720.07
2018-09-21T23:33:13.788Z,100719.27
2018-09-21T23:35:42.726Z,100746.64
2018-09-21T23:38:11.539Z,100736.72
2018-09-21T23:40:40.331Z,100737.10
2018-09-21T23:43:09.287Z,100737.77
2018-09-21T23:45:38.179Z,100751.91
2018-09-21T23:48:07.073Z,100759.66
2018-09-21T23:50:35.957Z,100760.88
2018-09-21T23:53:05.016Z,100769.01
2018-09-21T23:55:33.897Z,100764.48
2018-09-21T23:58:02.762Z,100768.59
